sensor_id;sensor_type;location;lat;lon;timestamp;pressure;altitude;pressure_sealevel;temperature;humidity
73600;BME280;61877;48.246;9.220;2023-03-23T00:00:33;93698.97;;;7.24;79.41
73600;BME280;61877;48.246;9.220;2023-03-23T00:02:58;93689.72;;;7.21;80.07
73600;BME280;61877;48.246;9.220;2023-03-23T00:05:23;93696.31;;;7.24;79.54
73600;BME280;61877;48.246;9.220;2023-03-23T00:07:49;93684.84;;;7.23;80.15
73600;BME280;61877;48.246;9.220;2023-03-23T00:10:14;93691.75;;;7.24;79.82
73600;BME280;61877;48.246;9.220;2023-03-23T00:12:40;93690.03;;;7.20;80.04
73600;BME280;61877;48.246;9.220;2023-03-23T00:15:07;93682.03;;;7.20;80.64
73600;BME280;61877;48.246;9.220;2023-03-23T00:17:44;93692.38;;;7.21;80.36
73600;BME280;61877;48.246;9.220;2023-03-23T00:20:10;93694.94;;;7.18;80.12
73600;BME280;61877;48.246;9.220;2023-03-23T00:22:37;93676.97;;;7.27;80.24
73600;BME280;61877;48.246;9.220;2023-03-23T00:25:03;93682.13;;;7.32;80.18
73600;BME280;61877;48.246;9.220;2023-03-23T00:27:28;93684.44;;;7.33;79.71
73600;BME280;61877;48.246;9.220;2023-03-23T00:29:53;93678.34;;;7.33;80.04
73600;BME280;61877;48.246;9.220;2023-03-23T00:32:20;93676.31;;;7.30;79.92
73600;BME280;61877;48.246;9.220;2023-03-23T00:34:47;93681.66;;;7.30;80.12
73600;BME280;61877;48.246;9.220;2023-03-23T00:37:12;93677.63;;;7.24;79.68
73600;BME280;61877;48.246;9.220;2023-03-23T00:39:38;93666.97;;;7.24;80.05
73600;BME280;61877;48.246;9.220;2023-03-23T00:42:06;93662.94;;;7.18;80.07
73600;BME280;61877;48.246;9.220;2023-03-23T00:44:33;93652.38;;;7.21;79.89
73600;BME280;61877;48.246;9.220;2023-03-23T00:46:58;93653.94;;;7.22;79.91
73600;BME280;61877;48.246;9.220;2023-03-23T00:49:25;93656.16;;;7.20;79.85
73600;BME280;61877;48.246;9.220;2023-03-23T00:51:55;93657.28;;;7.19;79.95
73600;BME280;61877;48.246;9.220;2023-03-23T00:54:22;93661.34;;;7.17;79.62
73600;BME280;61877;48.246;9.220;2023-03-23T00:56:49;93656.94;;;7.21;80.08
73600;BME280;61877;48.246;9.220;2023-03-23T00:59:14;93646.28;;;7.21;80.01
73600;BME280;61877;48.246;9.220;2023-03-23T01:01:40;93648.47;;;7.19;80.31
73600;BME280;61877;48.246;9.220;2023-03-23T01:04:06;93649.69;;;7.21;80.67
73600;BME280;61877;48.246;9.220;2023-03-23T01:06:33;93651.47;;;7.17;80.67
73600;BME280;61877;48.246;9.220;2023-03-23T01:09:01;93643.28;;;7.22;80.72
73600;BME280;61877;48.246;9.220;2023-03-23T01:11:26;93653.94;;;7.22;80.65
73600;BME280;61877;48.246;9.220;2023-03-23T01:13:52;93643.59;;;7.21;80.84
73600;BME280;61877;48.246;9.220;2023-03-23T01:16:17;93637.47;;;7.20;81.26
73600;BME280;61877;48.246;9.220;2023-03-23T01:18:42;93635.28;;;7.22;81.46
73600;BME280;61877;48.246;9.220;2023-03-23T01:21:10;93634.03;;;7.20;81.29
73600;BME280;61877;48.246;9.220;2023-03-23T01:23:37;93633.50;;;7.26;81.48
73600;BME280;61877;48.246;9.220;2023-03-23T01:26:05;93625.63;;;7.30;81.11
73600;BME280;61877;48.246;9.220;2023-03-23T01:28:31;93635.88;;;7.28;81.30
73600;BME280;61877;48.246;9.220;2023-03-23T01:30:59;93618.16;;;7.23;81.80
73600;BME280;61877;48.246;9.220;2023-03-23T01:33:25;93622.72;;;7.23;81.39
73600;BME280;61877;48.246;9.220;2023-03-23T01:35:50;93624.34;;;7.15;81.64
73600;BME280;61877;48.246;9.220;2023-03-23T01:38:15;93619.00;;;7.15;81.90
73600;BME280;61877;48.246;9.220;2023-03-23T01:40:41;93619.00;;;7.15;81.92
73600;BME280;61877;48.246;9.220;2023-03-23T01:45:36;93617.78;;;7.13;81.65
73600;BME280;61877;48.246;9.220;2023-03-23T01:48:05;93614.34;;;7.12;81.25
73600;BME280;61877;48.246;9.220;2023-03-23T01:50:36;93615.22;;;7.16;81.35
73600;BME280;61877;48.246;9.220;2023-03-23T01:53:05;93618.88;;;7.12;81.64
73600;BME280;61877;48.246;9.220;2023-03-23T01:55:31;93619.34;;;7.14;81.53
73600;BME280;61877;48.246;9.220;2023-03-23T01:57:57;93626.88;;;7.12;82.03
73600;BME280;61877;48.246;9.220;2023-03-23T02:00:22;93630.00;;;7.14;81.53
73600;BME280;61877;48.246;9.220;2023-03-23T02:02:52;93634.56;;;7.13;81.73
73600;BME280;61877;48.246;9.220;2023-03-23T02:05:22;93625.78;;;7.13;81.38
73600;BME280;61877;48.246;9.220;2023-03-23T02:07:49;93633.78;;;7.13;81.73
73600;BME280;61877;48.246;9.220;2023-03-23T02:10:15;93616.00;;;7.17;81.40
73600;BME280;61877;48.246;9.220;2023-03-23T02:12:41;93612.44;;;7.13;81.88
73600;BME280;61877;48.246;9.220;2023-03-23T02:15:07;93611.34;;;7.14;81.87
73600;BME280;61877;48.246;9.220;2023-03-23T02:17:41;93604.56;;;7.16;81.59
73600;BME280;61877;48.246;9.220;2023-03-23T02:20:28;93596.13;;;7.14;82.19
73600;BME280;61877;48.246;9.220;2023-03-23T02:23:16;93604.25;;;7.18;81.83
73600;BME280;61877;48.246;9.220;2023-03-23T02:26:04;93602.81;;;7.20;81.87
73600;BME280;61877;48.246;9.220;2023-03-23T02:28:49;93604.69;;;7.20;81.94
73600;BME280;61877;48.246;9.220;2023-03-23T02:31:45;93616.72;;;7.26;81.88
73600;BME280;61877;48.246;9.220;2023-03-23T02:34:16;93612.16;;;7.26;81.84
73600;BME280;61877;48.246;9.220;2023-03-23T02:36:50;93620.94;;;7.27;81.38
73600;BME280;61877;48.246;9.220;2023-03-23T02:39:20;93610.72;;;7.29;81.86
73600;BME280;61877;48.246;9.220;2023-03-23T02:41:51;93611.31;;;7.34;81.77
73600;BME280;61877;48.246;9.220;2023-03-23T02:44:18;93613.88;;;7.43;80.59
73600;BME280;61877;48.246;9.220;2023-03-23T02:46:44;93608.00;;;7.37;80.98
73600;BME280;61877;48.246;9.220;2023-03-23T02:49:14;93604.75;;;7.32;81.09
73600;BME280;61877;48.246;9.220;2023-03-23T02:51:46;93606.53;;;7.40;80.43
73600;BME280;61877;48.246;9.220;2023-03-23T02:54:14;93603.41;;;7.38;80.77
73600;BME280;61877;48.246;9.220;2023-03-23T02:56:43;93603.88;;;7.40;81.39
73600;BME280;61877;48.246;9.220;2023-03-23T02:59:08;93600.75;;;7.38;81.47
73600;BME280;61877;48.246;9.220;2023-03-23T03:01:53;93600.31;;;7.36;82.10
73600;BME280;61877;48.246;9.220;2023-03-23T03:04:23;93586.97;;;7.36;81.73
73600;BME280;61877;48.246;9.220;2023-03-23T03:07:01;93577.41;;;7.35;82.46
73600;BME280;61877;48.246;9.220;2023-03-23T03:09:38;93573.19;;;7.34;82.04
73600;BME280;61877;48.246;9.220;2023-03-23T03:12:12;93582.59;;;7.31;81.85
73600;BME280;61877;48.246;9.220;2023-03-23T03:14:44;93576.06;;;7.29;81.96
73600;BME280;61877;48.246;9.220;2023-03-23T03:17:19;93574.03;;;7.26;82.12
73600;BME280;61877;48.246;9.220;2023-03-23T03:19:49;93570.78;;;7.20;82.41
73600;BME280;61877;48.246;9.220;2023-03-23T03:22:16;93565.34;;;7.17;82.55
73600;BME280;61877;48.246;9.220;2023-03-23T03:24:43;93566.78;;;7.14;82.75
73600;BME280;61877;48.246;9.220;2023-03-23T03:27:11;93561.44;;;7.14;82.69
73600;BME280;61877;48.246;9.220;2023-03-23T03:29:40;93560.19;;;7.12;82.77
73600;BME280;61877;48.246;9.220;2023-03-23T03:32:07;93561.31;;;7.11;83.02
73600;BME280;61877;48.246;9.220;2023-03-23T03:34:34;93566.78;;;7.14;83.44
73600;BME280;61877;48.246;9.220;2023-03-23T03:37:01;93573.53;;;7.12;82.99
73600;BME280;61877;48.246;9.220;2023-03-23T03:39:27;93580.00;;;7.11;83.33
73600;BME280;61877;48.246;9.220;2023-03-23T03:41:54;93580.31;;;7.09;83.23
73600;BME280;61877;48.246;9.220;2023-03-23T03:44:23;93582.19;;;7.09;83.75
73600;BME280;61877;48.246;9.220;2023-03-23T03:46:48;93585.06;;;7.04;83.47
73600;BME280;61877;48.246;9.220;2023-03-23T03:49:14;93583.06;;;7.01;83.65
73600;BME280;61877;48.246;9.220;2023-03-23T03:51:40;93574.59;;;6.99;83.67
73600;BME280;61877;48.246;9.220;2023-03-23T03:54:08;93570.50;;;7.01;83.92
73600;BME280;61877;48.246;9.220;2023-03-23T03:56:35;93571.72;;;7.04;83.83
73600;BME280;61877;48.246;9.220;2023-03-23T03:59:01;93572.00;;;7.11;83.86
73600;BME280;61877;48.246;9.220;2023-03-23T04:01:26;93572.00;;;7.11;83.69
73600;BME280;61877;48.246;9.220;2023-03-23T04:03:52;93568.84;;;7.09;83.44
73600;BME280;61877;48.246;9.220;2023-03-23T04:06:19;93563.97;;;7.11;83.54
73600;BME280;61877;48.246;9.220;2023-03-23T04:08:45;93557.06;;;7.10;83.85
73600;BME280;61877;48.246;9.220;2023-03-23T04:11:14;93556.66;;;7.08;84.03
73600;BME280;61877;48.246;9.220;2023-03-23T04:13:40;93548.19;;;7.06;84.21
73600;BME280;61877;48.246;9.220;2023-03-23T04:16:06;93550.97;;;7.09;83.86
73600;BME280;61877;48.246;9.220;2023-03-23T04:18:34;93556.78;;;7.11;83.74
73600;BME280;61877;48.246;9.220;2023-03-23T04:21:01;93551.44;;;7.11;83.68
73600;BME280;61877;48.246;9.220;2023-03-23T04:23:29;93546.41;;;7.10;83.98
73600;BME280;61877;48.246;9.220;2023-03-23T04:25:55;93542.44;;;7.16;83.84
73600;BME280;61877;48.246;9.220;2023-03-23T04:28:23;93535.63;;;7.39;82.10
73600;BME280;61877;48.246;9.220;2023-03-23T04:30:50;93546.97;;;7.48;81.13
73600;BME280;61877;48.246;9.220;2023-03-23T04:33:15;93551.63;;;7.39;82.03
73600;BME280;61877;48.246;9.220;2023-03-23T04:35:42;93548.25;;;7.30;82.89
73600;BME280;61877;48.246;9.220;2023-03-23T04:38:08;93551.91;;;7.25;83.38
73600;BME280;61877;48.246;9.220;2023-03-23T04:40:38;93550.25;;;7.21;84.05
73600;BME280;61877;48.246;9.220;2023-03-23T04:43:04;93547.13;;;7.19;84.11
73600;BME280;61877;48.246;9.220;2023-03-23T04:45:33;93544.00;;;7.17;84.22
73600;BME280;61877;48.246;9.220;2023-03-23T04:48:01;93539.78;;;7.16;84.15
73600;BME280;61877;48.246;9.220;2023-03-23T04:50:28;93532.66;;;7.20;83.90
73600;BME280;61877;48.246;9.220;2023-03-23T04:52:54;93533.97;;;7.14;84.42
73600;BME280;61877;48.246;9.220;2023-03-23T04:55:20;93540.88;;;7.15;84.66
73600;BME280;61877;48.246;9.220;2023-03-23T04:57:52;93540.88;;;7.15;84.63
73600;BME280;61877;48.246;9.220;2023-03-23T05:00:18;93539.31;;;7.14;85.08
73600;BME280;61877;48.246;9.220;2023-03-23T05:02:48;93542.00;;;7.14;85.49
73600;BME280;61877;48.246;9.220;2023-03-23T05:05:14;93544.66;;;7.14;85.41
73600;BME280;61877;48.246;9.220;2023-03-23T05:07:40;93555.66;;;7.12;85.88
73600;BME280;61877;48.246;9.220;2023-03-23T05:10:13;93541.66;;;7.15;85.21
73600;BME280;61877;48.246;9.220;2023-03-23T05:12:39;93544.91;;;7.21;84.66
73600;BME280;61877;48.246;9.220;2023-03-23T05:15:09;93551.59;;;7.27;84.75
73600;BME280;61877;48.246;9.220;2023-03-23T05:17:35;93543.59;;;7.27;84.82
73600;BME280;61877;48.246;9.220;2023-03-23T05:20:06;93550.59;;;7.31;84.79
73600;BME280;61877;48.246;9.220;2023-03-23T05:22:33;93550.72;;;7.35;84.39
73600;BME280;61877;48.246;9.220;2023-03-23T05:24:58;93552.63;;;7.34;84.03
73600;BME280;61877;48.246;9.220;2023-03-23T05:27:24;93556.03;;;7.35;84.10
73600;BME280;61877;48.246;9.220;2023-03-23T05:29:49;93559.28;;;7.40;84.18
73600;BME280;61877;48.246;9.220;2023-03-23T05:32:15;93553.16;;;7.40;84.34
73600;BME280;61877;48.246;9.220;2023-03-23T05:34:41;93551.41;;;7.44;84.20
73600;BME280;61877;48.246;9.220;2023-03-23T05:37:08;93545.53;;;7.50;83.90
73600;BME280;61877;48.246;9.220;2023-03-23T05:39:34;93546.31;;;7.63;83.16
73600;BME280;61877;48.246;9.220;2023-03-23T05:42:00;93549.69;;;7.72;82.84
73600;BME280;61877;48.246;9.220;2023-03-23T05:44:25;93543.44;;;7.68;83.44
73600;BME280;61877;48.246;9.220;2023-03-23T05:46:56;93541.88;;;7.67;83.68
73600;BME280;61877;48.246;9.220;2023-03-23T05:49:27;93548.78;;;7.68;83.86
73600;BME280;61877;48.246;9.220;2023-03-23T05:51:53;93547.69;;;7.69;84.17
73600;BME280;61877;48.246;9.220;2023-03-23T05:54:20;93546.69;;;7.73;84.04
73600;BME280;61877;48.246;9.220;2023-03-23T05:56:46;93546.69;;;7.73;83.84
73600;BME280;61877;48.246;9.220;2023-03-23T05:59:11;93550.34;;;7.81;83.63
73600;BME280;61877;48.246;9.220;2023-03-23T06:01:37;93556.94;;;7.83;83.58
73600;BME280;61877;48.246;9.220;2023-03-23T06:04:03;93559.25;;;7.85;83.95
73600;BME280;61877;48.246;9.220;2023-03-23T06:06:32;93561.72;;;7.90;83.31
73600;BME280;61877;48.246;9.220;2023-03-23T06:09:02;93555.03;;;7.96;83.66
73600;BME280;61877;48.246;9.220;2023-03-23T06:11:29;93559.50;;;8.04;82.88
73600;BME280;61877;48.246;9.220;2023-03-23T06:14:04;93562.09;;;8.25;81.36
73600;BME280;61877;48.246;9.220;2023-03-23T06:16:29;93566.06;;;8.43;80.55
73600;BME280;61877;48.246;9.220;2023-03-23T06:19:01;93582.00;;;8.51;81.31
73600;BME280;61877;48.246;9.220;2023-03-23T06:21:27;93567.03;;;8.62;81.45
73600;BME280;61877;48.246;9.220;2023-03-23T06:23:53;93569.94;;;8.69;80.63
73600;BME280;61877;48.246;9.220;2023-03-23T06:26:22;93573.38;;;8.82;80.15
73600;BME280;61877;48.246;9.220;2023-03-23T06:28:55;93571.78;;;8.93;79.38
73600;BME280;61877;48.246;9.220;2023-03-23T06:31:35;93575.63;;;9.07;78.87
73600;BME280;61877;48.246;9.220;2023-03-23T06:34:01;93572.47;;;9.18;78.75
73600;BME280;61877;48.246;9.220;2023-03-23T06:36:27;93573.13;;;9.27;77.82
73600;BME280;61877;48.246;9.220;2023-03-23T06:38:53;93575.97;;;9.34;75.51
73600;BME280;61877;48.246;9.220;2023-03-23T06:47:53;93576.94;;;10.00;71.84
73600;BME280;61877;48.246;9.220;2023-03-23T06:53:23;93596.28;;;10.71;70.36
73600;BME280;61877;48.246;9.220;2023-03-23T06:58:36;93590.06;;;11.21;68.36
73600;BME280;61877;48.246;9.220;2023-03-23T07:01:55;93590.53;;;11.42;67.01
73600;BME280;61877;48.246;9.220;2023-03-23T07:04:25;93593.44;;;11.72;65.96
73600;BME280;61877;48.246;9.220;2023-03-23T07:06:51;93591.13;;;11.93;65.47
73600;BME280;61877;48.246;9.220;2023-03-23T07:09:37;93592.69;;;11.94;64.14
73600;BME280;61877;48.246;9.220;2023-03-23T07:12:09;93591.19;;;11.96;64.34
73600;BME280;61877;48.246;9.220;2023-03-23T07:14:34;93595.78;;;11.96;64.23
73600;BME280;61877;48.246;9.220;2023-03-23T07:20:08;93598.34;;;11.89;61.86
73600;BME280;61877;48.246;9.220;2023-03-23T07:22:36;93601.13;;;11.92;63.08
73600;BME280;61877;48.246;9.220;2023-03-23T07:25:02;93600.47;;;11.99;63.03
73600;BME280;61877;48.246;9.220;2023-03-23T07:27:28;93599.31;;;12.22;61.81
73600;BME280;61877;48.246;9.220;2023-03-23T07:29:54;93612.88;;;12.29;62.30
73600;BME280;61877;48.246;9.220;2023-03-23T07:32:20;93603.50;;;12.42;61.61
73600;BME280;61877;48.246;9.220;2023-03-23T07:34:46;93614.19;;;12.39;62.73
73600;BME280;61877;48.246;9.220;2023-03-23T07:37:18;93617.13;;;12.53;61.35
73600;BME280;61877;48.246;9.220;2023-03-23T07:39:43;93618.50;;;12.66;61.69
73600;BME280;61877;48.246;9.220;2023-03-23T07:47:45;93632.31;;;12.64;60.97
73600;BME280;61877;48.246;9.220;2023-03-23T07:50:11;93615.38;;;12.64;60.87
73600;BME280;61877;48.246;9.220;2023-03-23T07:52:39;93616.81;;;12.58;62.29
73600;BME280;61877;48.246;9.220;2023-03-23T07:57:48;93614.38;;;12.49;61.98
73600;BME280;61877;48.246;9.220;2023-03-23T08:03:18;93618.38;;;12.59;61.42
73600;BME280;61877;48.246;9.220;2023-03-23T08:05:43;93611.66;;;12.72;60.79
73600;BME280;61877;48.246;9.220;2023-03-23T08:08:14;93616.91;;;12.87;59.98
73600;BME280;61877;48.246;9.220;2023-03-23T08:11:05;93621.50;;;13.10;59.78
73600;BME280;61877;48.246;9.220;2023-03-23T08:13:30;93623.78;;;13.37;58.92
73600;BME280;61877;48.246;9.220;2023-03-23T08:15:56;93627.47;;;13.55;58.27
73600;BME280;61877;48.246;9.220;2023-03-23T08:18:25;93623.81;;;13.70;57.11
73600;BME280;61877;48.246;9.220;2023-03-23T08:20:51;93619.84;;;13.94;57.14
73600;BME280;61877;48.246;9.220;2023-03-23T08:29:09;93627.75;;;14.50;54.55
73600;BME280;61877;48.246;9.220;2023-03-23T08:32:07;93636.50;;;14.80;54.57
73600;BME280;61877;48.246;9.220;2023-03-23T08:40:08;93637.41;;;14.98;52.99
73600;BME280;61877;48.246;9.220;2023-03-23T08:43:10;93630.69;;;15.32;52.78
73600;BME280;61877;48.246;9.220;2023-03-23T08:45:36;93634.84;;;15.19;52.36
73600;BME280;61877;48.246;9.220;2023-03-23T08:51:08;93641.47;;;15.28;52.47
73600;BME280;61877;48.246;9.220;2023-03-23T08:53:52;93646.00;;;15.10;52.27
73600;BME280;61877;48.246;9.220;2023-03-23T08:56:21;93645.25;;;15.17;51.72
73600;BME280;61877;48.246;9.220;2023-03-23T08:58:56;93643.63;;;15.05;52.77
73600;BME280;61877;48.246;9.220;2023-03-23T09:01:29;93650.34;;;15.29;52.64
73600;BME280;61877;48.246;9.220;2023-03-23T09:03:57;93642.41;;;14.99;52.88
73600;BME280;61877;48.246;9.220;2023-03-23T09:12:18;93662.59;;;15.12;52.69
73600;BME280;61877;48.246;9.220;2023-03-23T09:15:34;93667.59;;;15.14;50.85
73600;BME280;61877;48.246;9.220;2023-03-23T09:17:57;93666.00;;;15.06;50.85
73600;BME280;61877;48.246;9.220;2023-03-23T09:20:41;93670.09;;;14.86;51.33
73600;BME280;61877;48.246;9.220;2023-03-23T09:23:29;93669.53;;;15.10;50.32
73600;BME280;61877;48.246;9.220;2023-03-23T09:25:54;93671.47;;;15.13;50.35
73600;BME280;61877;48.246;9.220;2023-03-23T09:28:22;93678.41;;;15.14;49.84
73600;BME280;61877;48.246;9.220;2023-03-23T09:31:05;93681.53;;;15.70;50.05
73600;BME280;61877;48.246;9.220;2023-03-23T09:33:48;93677.50;;;16.25;49.37
73600;BME280;61877;48.246;9.220;2023-03-23T09:36:17;93683.63;;;16.05;48.05
73600;BME280;61877;48.246;9.220;2023-03-23T09:38:42;93688.75;;;15.48;48.70
73600;BME280;61877;48.246;9.220;2023-03-23T09:41:19;93700.31;;;14.98;50.51
73600;BME280;61877;48.246;9.220;2023-03-23T09:44:04;93697.69;;;15.09;50.49
73600;BME280;61877;48.246;9.220;2023-03-23T09:46:44;93690.59;;;14.90;51.30
73600;BME280;61877;48.246;9.220;2023-03-23T09:49:30;93691.47;;;15.05;52.67
73600;BME280;61877;48.246;9.220;2023-03-23T09:52:13;93698.72;;;15.41;50.83
73600;BME280;61877;48.246;9.220;2023-03-23T09:54:48;93688.75;;;15.52;50.50
73600;BME280;61877;48.246;9.220;2023-03-23T09:57:19;93681.81;;;15.55;50.12
73600;BME280;61877;48.246;9.220;2023-03-23T10:00:16;93696.53;;;15.64;50.44
73600;BME280;61877;48.246;9.220;2023-03-23T10:03:31;93694.56;;;15.58;50.05
73600;BME280;61877;48.246;9.220;2023-03-23T10:05:52;93686.03;;;15.52;50.11
73600;BME280;61877;48.246;9.220;2023-03-23T10:08:22;93690.88;;;15.83;49.86
73600;BME280;61877;48.246;9.220;2023-03-23T10:11:27;93679.63;;;15.78;48.82
73600;BME280;61877;48.246;9.220;2023-03-23T10:14:22;93688.78;;;15.59;49.69
73600;BME280;61877;48.246;9.220;2023-03-23T10:16:58;93688.88;;;15.73;50.07
73600;BME280;61877;48.246;9.220;2023-03-23T10:19:32;93692.59;;;15.47;50.68
73600;BME280;61877;48.246;9.220;2023-03-23T10:22:03;93688.16;;;15.83;50.05
73600;BME280;61877;48.246;9.220;2023-03-23T10:24:46;93678.63;;;16.14;49.30
73600;BME280;61877;48.246;9.220;2023-03-23T10:30:24;93674.91;;;16.60;48.46
73600;BME280;61877;48.246;9.220;2023-03-23T10:33:02;93679.97;;;16.97;47.73
73600;BME280;61877;48.246;9.220;2023-03-23T10:35:56;93683.81;;;17.28;46.97
73600;BME280;61877;48.246;9.220;2023-03-23T10:38:45;93682.69;;;16.76;47.17
73600;BME280;61877;48.246;9.220;2023-03-23T10:44:16;93695.63;;;16.11;47.96
73600;BME280;61877;48.246;9.220;2023-03-23T10:46:53;93699.50;;;16.13;49.79
73600;BME280;61877;48.246;9.220;2023-03-23T10:49:24;93697.41;;;15.82;52.75
73600;BME280;61877;48.246;9.220;2023-03-23T10:51:57;93714.78;;;15.78;52.28
73600;BME280;61877;48.246;9.220;2023-03-23T10:54:46;93712.19;;;15.37;53.64
73600;BME280;61877;48.246;9.220;2023-03-23T10:57:21;93711.72;;;15.25;54.27
73600;BME280;61877;48.246;9.220;2023-03-23T10:59:47;93699.34;;;15.24;53.49
73600;BME280;61877;48.246;9.220;2023-03-23T11:02:16;93701.34;;;15.34;53.18
73600;BME280;61877;48.246;9.220;2023-03-23T11:05:00;93715.78;;;15.48;53.25
73600;BME280;61877;48.246;9.220;2023-03-23T11:10:35;93715.75;;;15.45;56.88
73600;BME280;61877;48.246;9.220;2023-03-23T11:13:01;93720.81;;;15.50;55.94
73600;BME280;61877;48.246;9.220;2023-03-23T11:15:34;93712.91;;;15.92;56.27
73600;BME280;61877;48.246;9.220;2023-03-23T11:18:05;93711.63;;;15.65;54.60
73600;BME280;61877;48.246;9.220;2023-03-23T11:20:35;93709.13;;;16.07;56.41
73600;BME280;61877;48.246;9.220;2023-03-23T11:23:21;93695.44;;;16.79;54.59
73600;BME280;61877;48.246;9.220;2023-03-23T11:26:10;93702.06;;;17.03;51.13
73600;BME280;61877;48.246;9.220;2023-03-23T11:28:52;93705.53;;;17.21;50.55
73600;BME280;61877;48.246;9.220;2023-03-23T11:31:21;93696.59;;;16.67;50.75
73600;BME280;61877;48.246;9.220;2023-03-23T11:34:09;93698.66;;;15.99;51.27
73600;BME280;61877;48.246;9.220;2023-03-23T11:36:47;93696.72;;;15.99;51.70
73600;BME280;61877;48.246;9.220;2023-03-23T11:39:24;93690.41;;;15.74;51.59
73600;BME280;61877;48.246;9.220;2023-03-23T11:41:59;93685.47;;;15.94;50.94
73600;BME280;61877;48.246;9.220;2023-03-23T11:44:32;93684.34;;;16.02;53.66
73600;BME280;61877;48.246;9.220;2023-03-23T11:47:06;93682.03;;;16.00;51.01
73600;BME280;61877;48.246;9.220;2023-03-23T11:49:41;93680.81;;;15.87;52.10
73600;BME280;61877;48.246;9.220;2023-03-23T11:52:36;93687.06;;;15.98;50.95
73600;BME280;61877;48.246;9.220;2023-03-23T11:55:10;93679.25;;;15.79;52.09
73600;BME280;61877;48.246;9.220;2023-03-23T11:57:40;93672.00;;;16.01;51.00
73600;BME280;61877;48.246;9.220;2023-03-23T12:00:35;93675.31;;;16.62;49.87
73600;BME280;61877;48.246;9.220;2023-03-23T12:03:10;93677.63;;;16.82;49.28
73600;BME280;61877;48.246;9.220;2023-03-23T12:05:51;93674.91;;;16.67;48.10
73600;BME280;61877;48.246;9.220;2023-03-23T12:11:29;93666.44;;;16.94;46.83
73600;BME280;61877;48.246;9.220;2023-03-23T12:14:09;93655.97;;;16.85;47.73
73600;BME280;61877;48.246;9.220;2023-03-23T12:16:53;93664.13;;;17.03;47.28
73600;BME280;61877;48.246;9.220;2023-03-23T12:19:42;93666.44;;;17.08;47.43
73600;BME280;61877;48.246;9.220;2023-03-23T12:22:22;93663.69;;;17.64;46.49
73600;BME280;61877;48.246;9.220;2023-03-23T12:25:08;93656.75;;;17.49;45.99
73600;BME280;61877;48.246;9.220;2023-03-23T12:27:47;93655.16;;;17.48;45.26
73600;BME280;61877;48.246;9.220;2023-03-23T12:33:38;93655.06;;;17.97;46.21
73600;BME280;61877;48.246;9.220;2023-03-23T12:36:13;93644.66;;;17.71;43.93
73600;BME280;61877;48.246;9.220;2023-03-23T12:39:14;93645.53;;;17.01;45.49
73600;BME280;61877;48.246;9.220;2023-03-23T12:41:48;93638.16;;;17.05;45.60
73600;BME280;61877;48.246;9.220;2023-03-23T12:44:26;93637.00;;;17.13;45.87
73600;BME280;61877;48.246;9.220;2023-03-23T12:47:21;93636.22;;;16.92;46.12
73600;BME280;61877;48.246;9.220;2023-03-23T12:50:09;93642.41;;;17.24;46.65
73600;BME280;61877;48.246;9.220;2023-03-23T12:53:10;93655.97;;;16.85;45.86
73600;BME280;61877;48.246;9.220;2023-03-23T12:55:49;93651.31;;;16.86;45.24
73600;BME280;61877;48.246;9.220;2023-03-23T12:58:26;93646.66;;;16.72;45.93
73600;BME280;61877;48.246;9.220;2023-03-23T13:01:10;93645.13;;;16.60;46.34
73600;BME280;61877;48.246;9.220;2023-03-23T13:03:51;93652.09;;;16.90;46.22
73600;BME280;61877;48.246;9.220;2023-03-23T13:06:47;93634.69;;;16.66;45.78
73600;BME280;61877;48.246;9.220;2023-03-23T13:09:42;93635.84;;;16.72;46.04
73600;BME280;61877;48.246;9.220;2023-03-23T13:12:13;93622.28;;;16.54;47.08
73600;BME280;61877;48.246;9.220;2023-03-23T13:14:45;93622.69;;;16.92;46.43
73600;BME280;61877;48.246;9.220;2023-03-23T13:17:26;93614.16;;;16.51;47.66
73600;BME280;61877;48.246;9.220;2023-03-23T13:22:56;93614.16;;;16.47;48.09
73600;BME280;61877;48.246;9.220;2023-03-23T13:25:47;93606.34;;;16.35;48.53
73600;BME280;61877;48.246;9.220;2023-03-23T13:28:46;93615.66;;;16.38;48.89
73600;BME280;61877;48.246;9.220;2023-03-23T13:31:30;93603.63;;;16.14;48.07
73600;BME280;61877;48.246;9.220;2023-03-23T13:34:18;93604.78;;;16.13;47.33
73600;BME280;61877;48.246;9.220;2023-03-23T13:37:19;93610.22;;;16.27;48.86
73600;BME280;61877;48.246;9.220;2023-03-23T13:42:26;93606.72;;;16.16;47.27
73600;BME280;61877;48.246;9.220;2023-03-23T13:43:07;93606.69;;;16.09;46.61
73600;BME280;61877;48.246;9.220;2023-03-23T13:50:54;93600.53;;;16.19;46.08
73600;BME280;61877;48.246;9.220;2023-03-23T13:56:36;93598.66;;;16.44;47.27
73600;BME280;61877;48.246;9.220;2023-03-23T13:59:32;93605.22;;;16.43;47.22
73600;BME280;61877;48.246;9.220;2023-03-23T14:02:30;93593.19;;;16.30;46.81
73600;BME280;61877;48.246;9.220;2023-03-23T14:05:31;93595.53;;;16.25;47.48
73600;BME280;61877;48.246;9.220;2023-03-23T14:08:23;93599.34;;;16.06;47.48
73600;BME280;61877;48.246;9.220;2023-03-23T14:11:28;93602.81;;;16.07;47.54
73600;BME280;61877;48.246;9.220;2023-03-23T14:14:25;93593.13;;;15.95;48.64
73600;BME280;61877;48.246;9.220;2023-03-23T14:16:52;93597.41;;;16.00;47.56
73600;BME280;61877;48.246;9.220;2023-03-23T14:19:29;93596.69;;;16.27;48.19
73600;BME280;61877;48.246;9.220;2023-03-23T14:22:01;93599.84;;;16.47;47.64
73600;BME280;61877;48.246;9.220;2023-03-23T14:24:32;93597.44;;;16.17;47.53
73600;BME280;61877;48.246;9.220;2023-03-23T14:27:09;93586.25;;;16.43;47.79
73600;BME280;61877;48.246;9.220;2023-03-23T14:29:42;93591.66;;;16.43;47.06
73600;BME280;61877;48.246;9.220;2023-03-23T14:35:44;93601.41;;;16.51;47.66
73600;BME280;61877;48.246;9.220;2023-03-23T14:38:33;93597.09;;;16.33;48.30
73600;BME280;61877;48.246;9.220;2023-03-23T14:41:10;93588.56;;;16.27;47.66
73600;BME280;61877;48.246;9.220;2023-03-23T14:43:45;93591.72;;;16.71;47.65
73600;BME280;61877;48.246;9.220;2023-03-23T14:46:20;93591.34;;;16.66;46.16
73600;BME280;61877;48.246;9.220;2023-03-23T14:48:46;93588.94;;;16.22;46.68
73600;BME280;61877;48.246;9.220;2023-03-23T14:51:32;93587.78;;;16.30;47.29
73600;BME280;61877;48.246;9.220;2023-03-23T14:54:25;93584.69;;;16.32;48.20
73600;BME280;61877;48.246;9.220;2023-03-23T14:56:51;93571.94;;;16.25;48.67